Morley, Canada
Current Conditions -  °F | °C
As of 2:00 PM on Thursday 27 Nov 2014 (Local Time) from CYBW Reporting Station
Freezing Rain Freezing Rain  
Wind Chill:   Ceiling: 600
Heat Index: 18°   Visibility: 3mi
Dew Point: 16°   Wind: 15mph
Humidity: 93%   Direction: 20°NNE
Pressure: 29.74"   Gusts: 21mph
Location:  51.17°N, 114.85°W
Report Text: CYBW 272100Z AUTO 02013G18KT 3SM FZRA BR OVC006 M08/M09 A2974 RMK ICG SLP133
Loading
Personal Weather Stations






























Interactive Weather Map New forecast layout! Learn more

10-Day Weather Forecast

Advertisements
Track Severe Weather on mobile